Time;durP1;ratioP1;P1;durP2;ratioP2;P2;SDS_P1;SDS_P2;PMS_P1;PMS_P2;Temp;Humidity;BMP_temperature;BMP_pressure;BME280_temperature;BME280_humidity;BME280_pressure;Samples;Min_cycle;Max_cycle;Signal;HPM_P1;HPM_P2
2022/05/13 00:00:24;;;;;;;3.70;3.40;;;14.40;1.00;;;;;;6173439;28;20658;-56
2022/05/13 00:03:28;;;;;;;4.00;3.73;;;14.30;1.00;;;;;;6182250;28;20375;-55
2022/05/13 00:06:34;;;;;;;4.07;3.70;;;14.30;1.00;;;;;;6190503;28;20722;-55
2022/05/13 00:12:58;;;;;;;3.47;3.17;;;14.30;1.00;;;;;;6155930;28;20927;-54
2022/05/13 00:16:01;;;;;;;3.30;3.10;;;14.30;1.00;;;;;;6158988;28;20265;-55
2022/05/13 00:19:08;;;;;;;4.20;3.60;;;14.10;1.00;;;;;;6157082;28;20251;-56
2022/05/13 00:22:12;;;;;;;3.53;3.00;;;14.10;1.00;;;;;;6167509;28;20273;-55
2022/05/13 00:25:20;;;;;;;3.57;3.40;;;14.00;1.00;;;;;;6179372;28;20380;-54
2022/05/13 00:28:23;;;;;;;4.00;3.70;;;14.00;1.00;;;;;;6181741;28;20544;-55
2022/05/13 00:31:26;;;;;;;3.03;2.93;;;13.90;1.00;;;;;;6158060;28;20326;-56
2022/05/13 00:34:30;;;;;;;3.50;3.30;;;13.90;1.00;;;;;;6156056;28;20531;-52
2022/05/13 00:37:33;;;;;;;3.57;3.37;;;13.80;1.00;;;;;;6177568;28;20475;-55
2022/05/13 00:40:37;;;;;;;3.53;3.23;;;13.80;1.00;;;;;;6178609;28;20379;-56
2022/05/13 00:43:52;;;;;;;4.40;4.00;;;13.80;1.00;;;;;;6180721;28;20243;-55
2022/05/13 00:46:54;;;;;;;3.97;3.77;;;13.80;1.00;;;;;;6179819;28;20701;-56
2022/05/13 00:50:00;;;;;;;3.97;3.83;;;13.80;1.00;;;;;;6157490;28;20764;-54
2022/05/13 00:53:03;;;;;;;4.27;4.03;;;13.80;1.00;;;;;;6157581;28;20342;-54
2022/05/13 00:56:07;;;;;;;3.67;3.50;;;13.80;1.00;;;;;;6154603;28;20245;-56
2022/05/13 00:59:15;;;;;;;4.30;4.10;;;13.70;1.00;;;;;;6162493;28;20472;-53
2022/05/13 01:02:18;;;;;;;4.40;4.10;;;13.70;1.00;;;;;;6179289;28;20324;-54
2022/05/13 01:05:23;;;;;;;4.33;4.20;;;13.60;1.00;;;;;;6188064;28;20286;-53
2022/05/13 01:08:26;;;;;;;4.10;4.00;;;13.60;1.00;;;;;;6186314;28;20326;-55
2022/05/13 01:11:32;;;;;;;4.13;3.93;;;13.70;1.00;;;;;;6177061;28;20371;-55
2022/05/13 01:14:38;;;;;;;4.40;4.13;;;13.60;1.00;;;;;;6162916;28;20817;-54
2022/05/13 01:21:06;;;;;;;4.77;4.40;;;13.60;1.00;;;;;;6155472;28;20243;-55
2022/05/13 01:24:10;;;;;;;4.40;4.13;;;13.60;1.00;;;;;;6157861;28;20804;-58
2022/05/13 01:27:13;;;;;;;5.30;4.87;;;13.60;1.00;;;;;;6152667;28;20240;-55
2022/05/13 01:30:19;;;;;;;3.90;3.70;;;13.60;1.00;;;;;;6155261;28;20721;-55
2022/05/13 01:33:23;;;;;;;4.30;4.10;;;13.60;1.00;;;;;;6171489;28;20378;-55
2022/05/13 01:36:26;;;;;;;4.40;4.20;;;13.50;1.00;;;;;;6187133;28;20243;-53
2022/05/13 01:39:30;;;;;;;5.00;4.60;;;13.50;1.00;;;;;;6183277;28;20240;-53
2022/05/13 01:42:35;;;;;;;4.47;4.23;;;13.50;1.00;;;;;;6177182;28;20315;-55
2022/05/13 01:45:39;;;;;;;4.40;4.17;;;13.40;1.00;;;;;;6179366;28;20275;-55
2022/05/13 01:48:43;;;;;;;4.70;4.40;;;13.40;1.00;;;;;;6158239;28;20862;-54
2022/05/13 01:51:45;;;;;;;4.90;4.60;;;13.40;1.00;;;;;;6156140;28;20232;-54
2022/05/13 01:54:50;;;;;;;5.47;4.93;;;13.40;1.00;;;;;;6157515;28;20237;-54
2022/05/13 01:57:52;;;;;;;5.47;4.97;;;13.40;1.00;;;;;;6153937;28;20693;-53
2022/05/13 02:00:58;;;;;;;5.17;4.87;;;13.40;1.00;;;;;;6154887;28;20244;-54
2022/05/13 02:04:00;;;;;;;6.57;5.73;;;13.40;1.00;;;;;;6179790;28;20259;-56
2022/05/13 02:07:03;;;;;;;5.43;5.00;;;13.40;1.00;;;;;;6144877;28;20323;-53
2022/05/13 02:10:08;;;;;;;5.27;4.77;;;13.40;1.00;;;;;;6174303;28;20421;-55
2022/05/13 02:13:13;;;;;;;4.77;4.57;;;13.40;1.00;;;;;;6178057;28;20801;-54
2022/05/13 02:16:17;;;;;;;4.50;4.40;;;13.30;1.00;;;;;;6160589;28;20245;-56
2022/05/13 02:19:19;;;;;;;5.07;4.77;;;13.40;1.00;;;;;;6155441;28;20740;-55
2022/05/13 02:22:22;;;;;;;6.20;5.70;;;13.30;1.00;;;;;;6155050;28;20239;-54
2022/05/13 02:25:29;;;;;;;4.87;4.73;;;13.30;1.00;;;;;;6168700;28;20507;-55
2022/05/13 02:28:32;;;;;;;4.97;4.87;;;13.30;1.00;;;;;;6179169;28;20349;-56
2022/05/13 02:31:35;;;;;;;5.13;4.83;;;13.20;1.00;;;;;;6202857;28;20251;-52
2022/05/13 02:34:38;;;;;;;5.30;4.93;;;13.20;1.00;;;;;;6189250;28;20239;-56
2022/05/13 02:37:40;;;;;;;5.20;4.90;;;13.10;1.00;;;;;;6165238;28;20403;-56
2022/05/13 02:44:06;;;;;;;5.20;4.90;;;13.10;1.00;;;;;;6156093;28;20475;-55
2022/05/13 02:47:15;;;;;;;5.60;5.10;;;13.10;1.00;;;;;;6154567;28;20236;-54
2022/05/13 02:50:18;;;;;;;5.00;4.80;;;13.00;1.00;;;;;;6162012;28;20285;-54
2022/05/13 02:53:21;;;;;;;4.47;4.37;;;13.00;1.00;;;;;;6179121;28;20328;-56
2022/05/13 02:56:26;;;;;;;5.00;4.67;;;13.00;1.00;;;;;;6176904;28;20240;-54
2022/05/13 02:59:29;;;;;;;5.30;5.03;;;12.90;1.00;;;;;;6167887;28;20240;-55
2022/05/13 03:02:33;;;;;;;6.10;5.60;;;12.90;1.00;;;;;;6177833;28;20470;-54
2022/05/13 03:05:36;;;;;;;5.50;5.13;;;12.80;1.00;;;;;;6194308;28;20314;-55
2022/05/13 03:08:39;;;;;;;5.80;5.30;;;12.80;1.00;;;;;;6183746;28;20319;-56
2022/05/13 03:11:43;;;;;;;4.90;4.70;;;12.70;1.00;;;;;;6169081;28;20328;-55
2022/05/13 03:14:46;;;;;;;6.63;6.23;;;12.80;1.00;;;;;;6179271;28;20232;-56
2022/05/13 03:17:49;;;;;;;6.60;6.30;;;12.70;1.00;;;;;;6162657;28;20773;-54
2022/05/13 03:20:52;;;;;;;7.50;6.83;;;12.60;1.00;;;;;;6180173;28;20257;-56
2022/05/13 03:23:55;;;;;;;6.70;6.40;;;12.60;1.00;;;;;;6167801;28;20236;-56
2022/05/13 03:27:00;;;;;;;6.17;5.87;;;12.60;1.00;;;;;;6168825;28;20298;-53
2022/05/13 03:30:03;;;;;;;7.20;6.80;;;12.60;1.00;;;;;;6182521;28;20323;-56
2022/05/13 03:33:06;;;;;;;7.63;6.90;;;12.60;1.00;;;;;;6174099;28;20262;-58
2022/05/13 03:36:12;;;;;;;7.00;6.50;;;12.60;1.00;;;;;;6203196;28;20266;-55
2022/05/13 03:39:14;;;;;;;7.60;7.00;;;12.60;1.00;;;;;;6192095;28;20286;-55
2022/05/13 03:42:20;;;;;;;8.40;6.87;;;12.60;1.00;;;;;;6183865;28;20239;-56
2022/05/13 03:45:23;;;;;;;7.10;6.80;;;12.60;1.00;;;;;;6183790;28;20724;-54
2022/05/13 03:48:26;;;;;;;7.93;7.37;;;12.50;1.00;;;;;;6187932;28;20243;-56
2022/05/13 03:51:36;;;;;;;7.90;7.30;;;12.50;1.00;;;;;;6179179;28;20252;-54
2022/05/13 03:54:39;;;;;;;7.40;6.70;;;12.60;1.00;;;;;;6186107;28;20581;-55
2022/05/13 03:57:43;;;;;;;7.37;6.77;;;12.60;1.00;;;;;;6178285;28;20624;-53
2022/05/13 04:00:46;;;;;;;6.57;6.13;;;12.60;1.00;;;;;;6174761;28;20680;-56
2022/05/13 04:03:49;;;;;;;6.13;5.87;;;12.60;1.00;;;;;;6181493;28;20247;-56
2022/05/13 04:10:20;;;;;;;6.83;6.43;;;12.90;1.00;;;;;;6184104;28;20246;-54
2022/05/13 04:16:53;;;;;;;6.57;6.20;;;12.60;1.00;;;;;;6131025;28;26296;-60
2022/05/13 04:19:56;;;;;;;6.30;5.93;;;12.60;1.00;;;;;;6185990;28;20243;-56
2022/05/13 04:23:00;;;;;;;8.10;7.17;;;12.70;1.00;;;;;;6181774;28;20330;-57
2022/05/13 04:26:02;;;;;;;7.47;6.87;;;12.70;1.00;;;;;;6179454;28;20329;-54
2022/05/13 04:29:07;;;;;;;7.30;6.90;;;12.70;1.00;;;;;;6184503;28;20263;-55
2022/05/13 04:32:10;;;;;;;7.10;6.60;;;12.60;1.00;;;;;;6182847;28;20669;-56
2022/05/13 04:35:13;;;;;;;8.63;7.93;;;12.70;1.00;;;;;;6184710;28;20704;-56
2022/05/13 04:38:16;;;;;;;9.00;7.23;;;12.70;1.00;;;;;;6188043;28;20315;-54
2022/05/13 04:44:41;;;;;;;8.03;7.43;;;12.80;1.00;;;;;;6197912;28;20315;-56
2022/05/13 04:51:06;;;;;;;6.60;6.20;;;13.00;1.00;;;;;;6189092;28;20736;-56
2022/05/13 04:54:08;;;;;;;7.27;6.77;;;13.10;1.00;;;;;;6186892;28;20319;-56
2022/05/13 04:57:11;;;;;;;7.43;6.93;;;13.30;1.00;;;;;;6176055;28;20256;-56
2022/05/13 05:00:17;;;;;;;7.40;7.07;;;13.50;1.00;;;;;;6181073;28;20235;-54
2022/05/13 05:03:21;;;;;;;8.07;7.37;;;13.70;1.00;;;;;;6182757;28;20632;-56
2022/05/13 05:06:28;;;;;;;7.07;6.40;;;13.80;1.00;;;;;;6186602;28;20262;-55
2022/05/13 05:09:31;;;;;;;7.73;7.20;;;13.90;1.00;;;;;;6185901;28;20236;-56
2022/05/13 05:12:34;;;;;;;7.93;7.13;;;14.00;1.00;;;;;;6183299;28;20704;-55
2022/05/13 05:15:39;;;;;;;7.60;6.93;;;14.20;1.00;;;;;;6173030;28;20332;-56
2022/05/13 05:18:43;;;;;;;8.13;7.00;;;14.40;1.00;;;;;;6184974;28;20736;-54
2022/05/13 05:21:48;;;;;;;7.13;6.63;;;14.50;1.00;;;;;;6178034;28;20278;-56
2022/05/13 05:24:51;;;;;;;11.50;6.80;;;14.70;1.00;;;;;;6186905;28;20239;-54
2022/05/13 05:27:54;;;;;;;6.60;6.10;;;14.90;1.00;;;;;;6183064;28;20323;-56
2022/05/13 05:31:00;;;;;;;7.30;6.70;;;15.10;1.00;;;;;;6180385;28;20377;-55
2022/05/13 05:34:03;;;;;;;9.77;6.37;;;15.30;1.00;;;;;;6179440;28;20322;-56
2022/05/13 05:37:07;;;;;;;6.77;6.33;;;15.50;1.00;;;;;;6181452;28;20243;-56
2022/05/13 05:40:11;;;;;;;7.20;6.70;;;15.80;1.00;;;;;;6179756;28;20701;-55
2022/05/13 05:43:16;;;;;;;6.77;5.57;;;16.10;1.00;;;;;;6171630;28;20610;-56
2022/05/13 05:46:20;;;;;;;6.03;5.77;;;16.30;1.00;;;;;;6187611;28;20598;-55
2022/05/13 05:49:24;;;;;;;6.77;5.63;;;16.50;1.00;;;;;;6172355;28;20442;-56
2022/05/13 05:52:27;;;;;;;6.23;5.70;;;16.80;1.00;;;;;;6183695;28;20240;-56
2022/05/13 05:58:55;;;;;;;10.40;6.03;;;17.10;1.00;;;;;;6174301;28;20235;-53
2022/05/13 06:01:59;;;;;;;6.67;6.00;;;17.30;1.00;;;;;;6175605;28;20331;-54
2022/05/13 06:05:02;;;;;;;6.37;5.77;;;17.30;1.00;;;;;;6176258;28;20234;-53
2022/05/13 06:08:05;;;;;;;6.37;5.87;;;17.50;1.00;;;;;;6180853;28;20331;-55
2022/05/13 06:11:09;;;;;;;8.87;5.97;;;17.80;1.00;;;;;;6177467;28;20236;-54
2022/05/13 06:14:12;;;;;;;8.53;6.07;;;18.00;1.00;;;;;;6178016;28;20301;-54
2022/05/13 06:17:16;;;;;;;6.27;5.67;;;18.10;1.00;;;;;;6176120;28;20493;-55
2022/05/13 06:20:21;;;;;;;7.30;6.60;;;18.30;1.00;;;;;;6179960;28;20435;-57
2022/05/13 06:23:25;;;;;;;6.17;5.70;;;18.50;1.00;;;;;;6184271;28;20725;-56
2022/05/13 06:26:33;;;;;;;7.60;6.30;;;18.40;1.00;;;;;;6175835;28;21159;-53
2022/05/13 06:29:36;;;;;;;9.53;6.70;;;18.30;1.00;;;;;;6165048;28;20323;-56
2022/05/13 06:32:41;;;;;;;8.57;6.03;;;18.50;1.00;;;;;;6173425;28;20266;-56
2022/05/13 06:35:44;;;;;;;8.70;6.30;;;18.50;1.00;;;;;;6168528;28;20299;-55
2022/05/13 06:38:47;;;;;;;6.70;6.00;;;18.50;1.00;;;;;;6178605;28;20374;-55
2022/05/13 06:41:50;;;;;;;8.70;6.50;;;18.30;1.00;;;;;;6172291;28;20963;-55
2022/05/13 06:44:53;;;;;;;7.30;6.17;;;18.40;1.00;;;;;;6183450;28;20247;-54
2022/05/13 06:47:59;;;;;;;7.47;6.43;;;18.60;1.00;;;;;;6174659;28;20246;-55
2022/05/13 06:51:08;;;;;;;6.23;5.80;;;18.80;1.00;;;;;;6173892;28;20472;-56
2022/05/13 06:54:12;;;;;;;6.47;5.87;;;18.80;1.00;;;;;;6183515;28;20721;-57
2022/05/13 06:57:14;;;;;;;8.07;6.60;;;18.90;1.00;;;;;;6180014;28;20297;-54
2022/05/13 07:00:18;;;;;;;7.53;6.83;;;19.10;1.00;;;;;;6189418;28;20511;-55
2022/05/13 07:03:25;;;;;;;6.67;6.17;;;19.10;1.00;;;;;;6179453;28;20248;-54
2022/05/13 07:06:28;;;;;;;7.67;7.03;;;18.80;1.00;;;;;;6182744;28;20267;-55
2022/05/13 07:09:31;;;;;;;7.30;6.53;;;18.60;1.00;;;;;;6187991;28;20476;-56
2022/05/13 07:12:34;;;;;;;9.40;7.03;;;18.60;1.00;;;;;;6179528;28;20236;-56
2022/05/13 07:15:37;;;;;;;7.50;6.50;;;18.70;1.00;;;;;;6177101;28;20407;-55
2022/05/13 07:18:42;;;;;;;7.20;6.33;;;18.80;1.00;;;;;;6183762;28;20231;-55
2022/05/13 07:21:44;;;;;;;7.53;6.90;;;18.80;1.00;;;;;;6183515;28;20243;-56
2022/05/13 07:24:47;;;;;;;9.43;6.70;;;18.80;1.00;;;;;;6183403;28;20342;-54
2022/05/13 07:27:51;;;;;;;7.33;6.63;;;18.90;1.00;;;;;;6180715;28;20721;-56
2022/05/13 07:30:54;;;;;;;7.33;6.70;;;19.00;1.00;;;;;;6190127;28;20320;-56
2022/05/13 07:33:58;;;;;;;8.27;7.60;;;19.10;1.00;;;;;;6181204;28;20319;-56
2022/05/13 07:37:01;;;;;;;8.87;7.60;;;18.90;1.00;;;;;;6186923;28;20326;-56
2022/05/13 07:43:28;;;;;;;11.30;7.63;;;18.70;1.00;;;;;;6179972;28;20797;-55
2022/05/13 07:46:31;;;;;;;8.63;7.30;;;18.70;1.00;;;;;;6193042;28;20288;-55
2022/05/13 07:49:37;;;;;;;7.70;7.00;;;18.80;1.00;;;;;;6176152;28;20239;-56
2022/05/13 07:52:40;;;;;;;8.00;7.20;;;18.80;1.00;;;;;;6190423;28;20710;-56
2022/05/13 07:55:46;;;;;;;10.10;6.73;;;18.80;1.00;;;;;;6183359;28;20738;-56
2022/05/13 07:58:49;;;;;;;8.47;7.67;;;18.80;1.00;;;;;;6185324;28;20661;-56
2022/05/13 08:01:54;;;;;;;7.57;7.03;;;18.90;1.00;;;;;;6183664;28;20258;-60
2022/05/13 08:04:58;;;;;;;10.43;8.47;;;18.90;1.00;;;;;;6182475;28;20332;-55
2022/05/13 08:08:04;;;;;;;9.33;7.83;;;18.80;1.00;;;;;;6189112;28;20246;-56
2022/05/13 08:11:11;;;;;;;8.87;8.07;;;18.90;1.00;;;;;;6187431;28;20244;-55
2022/05/13 08:14:13;;;;;;;9.60;8.83;;;18.90;1.00;;;;;;6178791;28;20354;-56
2022/05/13 08:17:17;;;;;;;9.13;8.40;;;18.70;1.00;;;;;;6172506;28;20591;-54
2022/05/13 08:20:21;;;;;;;8.47;7.83;;;18.50;1.00;;;;;;6175816;28;20318;-54
2022/05/13 08:23:24;;;;;;;12.83;8.97;;;18.30;1.00;;;;;;6188475;28;20720;-52
2022/05/13 08:26:27;;;;;;;9.23;8.37;;;18.00;1.00;;;;;;6158905;28;20740;-54
2022/05/13 08:29:30;;;;;;;9.03;8.23;;;17.90;1.00;;;;;;6192192;28;20533;-52
2022/05/13 08:32:33;;;;;;;11.17;8.17;;;17.90;1.00;;;;;;6186890;28;20239;-55
2022/05/13 08:35:44;;;;;;;9.63;8.87;;;17.80;1.00;;;;;;6186510;28;20239;-56
2022/05/13 08:38:49;;;;;;;8.53;7.73;;;17.70;1.00;;;;;;6184370;28;20232;-54
2022/05/13 08:42:08;;;;;;;9.10;8.37;;;17.60;1.00;;;;;;6177796;28;20877;-54
2022/05/13 08:45:12;;;;;;;9.87;8.67;;;17.60;1.00;;;;;;6182279;28;20255;-56
2022/05/13 08:48:24;;;;;;;9.43;8.67;;;17.60;1.00;;;;;;6175108;28;20266;-56
2022/05/13 08:51:49;;;;;;;10.37;8.87;;;17.40;1.00;;;;;;6186118;28;20902;-55
2022/05/13 08:54:54;;;;;;;13.27;9.30;;;17.40;1.00;;;;;;6168926;28;20487;-55
2022/05/13 08:57:58;;;;;;;11.00;9.90;;;17.30;1.00;;;;;;6182048;28;20243;-54
2022/05/13 09:01:14;;;;;;;9.57;8.67;;;17.30;1.00;;;;;;6179404;28;20287;-55
2022/05/13 09:04:37;;;;;;;13.33;9.80;;;17.30;1.00;;;;;;6170497;28;20631;-56
2022/05/13 09:07:41;;;;;;;10.57;9.67;;;17.40;1.00;;;;;;6179898;28;20611;-54
2022/05/13 09:10:59;;;;;;;9.10;8.30;;;17.50;1.00;;;;;;6180386;28;20679;-56
2022/05/13 09:14:10;;;;;;;8.77;8.03;;;17.70;1.00;;;;;;6179035;28;20267;-54
2022/05/13 09:17:28;;;;;;;9.70;7.67;;;18.00;1.00;;;;;;6175401;28;20371;-54
2022/05/13 09:20:38;;;;;;;9.47;7.67;;;18.10;1.00;;;;;;6176651;28;20430;-55
2022/05/13 09:23:42;;;;;;;6.70;6.07;;;18.30;1.00;;;;;;6181524;28;20339;-55
2022/05/13 09:26:46;;;;;;;6.30;5.80;;;18.40;1.00;;;;;;6177085;28;20525;-55
2022/05/13 09:29:48;;;;;;;6.57;5.63;;;18.60;1.00;;;;;;6178362;28;20228;-56
2022/05/13 09:32:51;;;;;;;6.83;4.80;;;18.70;1.00;;;;;;6185356;28;20250;-54
2022/05/13 09:35:57;;;;;;;6.20;5.27;;;18.80;1.00;;;;;;6180749;28;20464;-54
2022/05/13 09:39:19;;;;;;;4.67;4.27;;;19.10;1.00;;;;;;6179632;28;20232;-51
2022/05/13 09:42:26;;;;;;;5.67;4.37;;;19.30;1.00;;;;;;6171057;28;20236;-56
2022/05/13 09:45:31;;;;;;;8.13;4.67;;;19.30;1.00;;;;;;6179244;28;20251;-53
2022/05/13 09:48:53;;;;;;;8.13;4.63;;;19.60;1.00;;;;;;6176772;28;20232;-54
2022/05/13 09:51:59;;;;;;;5.00;4.27;;;19.80;1.00;;;;;;6177004;28;20742;-54
2022/05/13 09:55:14;;;;;;;4.67;4.03;;;19.70;1.00;;;;;;6179499;28;20238;-54
2022/05/13 09:58:20;;;;;;;5.53;5.03;;;19.60;1.00;;;;;;6172300;28;20531;-55
2022/05/13 10:01:28;;;;;;;4.47;3.87;;;19.50;1.00;;;;;;6181941;28;20244;-54
2022/05/13 10:04:31;;;;;;;5.00;4.30;;;19.80;1.00;;;;;;6177309;28;20236;-54
2022/05/13 10:07:34;;;;;;;8.97;4.40;;;19.70;1.00;;;;;;6186646;28;20458;-54
2022/05/13 10:14:06;;;;;;;6.33;4.33;;;19.70;1.00;;;;;;6188029;28;20771;-54
2022/05/13 10:17:14;;;;;;;5.70;4.37;;;19.70;1.00;;;;;;6187691;28;20244;-54
2022/05/13 10:20:28;;;;;;;5.17;4.63;;;19.60;1.00;;;;;;6150219;28;20710;-55
2022/05/13 10:23:35;;;;;;;4.93;4.53;;;19.70;1.00;;;;;;6185510;28;20710;-54
2022/05/13 10:26:43;;;;;;;10.37;4.90;;;19.80;1.00;;;;;;6179556;28;20244;-57
2022/05/13 10:29:50;;;;;;;4.63;4.33;;;19.70;1.00;;;;;;6179316;28;20379;-56
2022/05/13 10:32:59;;;;;;;6.47;5.43;;;19.70;1.00;;;;;;6184234;28;20239;-56
2022/05/13 10:36:18;;;;;;;6.00;5.00;;;19.50;1.00;;;;;;6176884;28;20606;-55
2022/05/13 10:39:24;;;;;;;7.00;5.67;;;19.20;1.00;;;;;;6188691;28;20239;-55
2022/05/13 10:42:32;;;;;;;8.30;5.80;;;18.80;1.00;;;;;;6175916;28;20240;-53
2022/05/13 10:45:37;;;;;;;5.53;5.03;;;18.50;1.00;;;;;;6177924;28;20238;-54
2022/05/13 10:48:40;;;;;;;8.50;5.03;;;18.30;1.00;;;;;;6180503;28;20592;-53
2022/05/13 10:51:53;;;;;;;6.30;5.70;;;18.10;1.00;;;;;;6185264;28;20394;-55
2022/05/13 10:55:03;;;;;;;6.03;5.17;;;18.10;1.00;;;;;;6186644;28;20288;-55
2022/05/13 10:58:25;;;;;;;4.60;4.30;;;18.00;1.00;;;;;;6174998;28;20248;-55
2022/05/13 11:01:41;;;;;;;6.87;5.03;;;18.10;1.00;;;;;;6188693;28;20315;-55
2022/05/13 11:04:51;;;;;;;5.27;4.27;;;18.10;1.00;;;;;;6193105;28;20231;-56
2022/05/13 11:08:09;;;;;;;4.63;3.73;;;18.40;1.00;;;;;;6189959;28;20356;-55
2022/05/13 11:11:34;;;;;;;5.33;3.70;;;18.70;1.00;;;;;;6185087;28;20240;-55
2022/05/13 11:14:58;;;;;;;3.77;3.40;;;18.90;1.00;;;;;;6180523;28;20236;-55
2022/05/13 11:18:12;;;;;;;3.50;3.20;;;19.30;1.00;;;;;;6186721;28;20239;-54
2022/05/13 11:21:25;;;;;;;4.40;3.30;;;19.30;1.00;;;;;;6185778;28;20236;-54
2022/05/13 11:28:49;;;;;;;5.53;3.10;;;19.10;1.00;;;;;;6184334;28;20330;-54
2022/05/13 11:32:11;;;;;;;5.77;3.23;;;19.20;1.00;;;;;;6187881;28;20909;-52
2022/05/13 11:35:49;;;;;;;3.37;3.10;;;19.30;1.00;;;;;;6185783;28;20597;-54
2022/05/13 11:39:09;;;;;;;7.27;3.80;;;19.40;1.00;;;;;;6188668;28;20278;-55
2022/05/13 11:42:26;;;;;;;3.30;3.00;;;19.50;1.00;;;;;;6175521;28;21094;-55
2022/05/13 11:45:43;;;;;;;4.90;3.63;;;19.60;1.00;;;;;;6185121;28;20235;-54
2022/05/13 11:48:49;;;;;;;9.53;4.13;;;19.60;1.00;;;;;;6177661;28;20473;-54
2022/05/13 11:51:53;;;;;;;5.40;3.47;;;19.70;1.00;;;;;;6178909;28;20236;-54
2022/05/13 11:55:14;;;;;;;5.00;3.40;;;19.50;1.00;;;;;;6182576;28;20286;-54
2022/05/13 11:58:46;;;;;;;9.17;3.80;;;19.70;1.00;;;;;;6179995;28;20675;-54
2022/05/13 12:02:34;;;;;;;11.00;4.17;;;19.90;1.00;;;;;;6187683;28;20288;-53
2022/05/13 12:06:01;;;;;;;5.80;3.80;;;20.00;1.00;;;;;;6188193;28;20967;-55
2022/05/13 12:09:10;;;;;;;5.10;3.80;;;20.10;1.00;;;;;;6187227;28;20678;-55
2022/05/13 12:12:22;;;;;;;4.80;3.60;;;20.30;1.00;;;;;;6185097;28;20253;-56
2022/05/13 12:15:40;;;;;;;3.97;3.63;;;20.10;1.00;;;;;;6182348;28;20240;-55
2022/05/13 12:18:49;;;;;;;4.97;4.17;;;20.00;1.00;;;;;;6184780;28;20250;-55
2022/05/13 12:22:00;;;;;;;4.47;3.80;;;19.90;1.00;;;;;;6183921;28;20589;-54
2022/05/13 12:25:07;;;;;;;5.97;3.80;;;19.80;1.00;;;;;;6188799;28;20240;-56
2022/05/13 12:28:21;;;;;;;6.10;3.73;;;19.90;1.00;;;;;;6183287;28;20251;-57
2022/05/13 12:31:46;;;;;;;4.03;3.67;;;20.10;1.00;;;;;;6188597;28;20409;-54
2022/05/13 12:38:19;;;;;;;6.80;3.57;;;20.20;1.00;;;;;;6185362;28;20323;-55
2022/05/13 12:41:24;;;;;;;6.40;3.63;;;20.00;1.00;;;;;;6182980;28;20708;-54
2022/05/13 12:44:36;;;;;;;4.87;3.43;;;19.90;1.00;;;;;;6171981;28;20298;-55
2022/05/13 12:48:00;;;;;;;5.90;3.80;;;19.70;1.00;;;;;;6178548;28;20243;-53
2022/05/13 12:51:20;;;;;;;6.70;3.50;;;19.50;1.00;;;;;;6188239;28;20232;-56
2022/05/13 12:54:34;;;;;;;6.47;3.40;;;19.40;1.00;;;;;;6181848;28;20415;-56
2022/05/13 12:57:41;;;;;;;5.53;3.13;;;19.10;1.00;;;;;;6189304;28;20243;-55
2022/05/13 13:00:47;;;;;;;3.80;3.37;;;19.00;1.00;;;;;;6174525;28;20248;-54
2022/05/13 13:03:51;;;;;;;7.63;3.50;;;18.90;1.00;;;;;;6178463;28;20324;-55
2022/05/13 13:06:54;;;;;;;5.40;3.80;;;18.80;1.00;;;;;;6180066;28;20290;-57
2022/05/13 13:09:59;;;;;;;8.03;3.50;;;18.70;1.00;;;;;;6177663;28;20243;-54
2022/05/13 13:13:10;;;;;;;6.00;4.30;;;18.50;1.00;;;;;;6184752;28;24335;-54
2022/05/13 13:16:22;;;;;;;7.00;4.00;;;18.40;1.00;;;;;;6187875;28;20299;-54
2022/05/13 13:19:27;;;;;;;4.93;4.13;;;18.30;1.00;;;;;;6177457;28;20232;-56
2022/05/13 13:22:41;;;;;;;5.73;3.83;;;18.10;1.00;;;;;;6179250;28;20415;-54
2022/05/13 13:25:49;;;;;;;7.53;3.80;;;18.10;1.00;;;;;;6185716;28;20250;-56
2022/05/13 13:28:54;;;;;;;8.73;3.93;;;18.00;1.00;;;;;;6170385;28;20251;-54
2022/05/13 13:32:01;;;;;;;8.13;3.80;;;17.90;1.00;;;;;;6184415;28;20317;-54
2022/05/13 13:35:12;;;;;;;3.97;3.50;;;17.90;1.00;;;;;;6183570;28;20262;-55
2022/05/13 13:38:17;;;;;;;4.73;3.80;;;18.00;1.00;;;;;;6187331;28;20228;-55
2022/05/13 13:41:32;;;;;;;3.63;3.40;;;18.10;1.00;;;;;;6173846;28;20236;-56
2022/05/13 13:44:36;;;;;;;4.53;3.77;;;18.40;1.00;;;;;;6189046;28;20232;-56
2022/05/13 13:47:42;;;;;;;5.57;3.90;;;18.70;1.00;;;;;;6181531;28;20665;-56
2022/05/13 13:50:50;;;;;;;6.87;3.93;;;18.80;1.00;;;;;;6173599;28;20679;-54
2022/05/13 13:54:00;;;;;;;6.87;4.00;;;19.00;1.00;;;;;;6190987;28;20239;-54
2022/05/13 13:57:20;;;;;;;7.77;3.80;;;19.30;1.00;;;;;;6177424;28;20236;-55
2022/05/13 14:00:29;;;;;;;6.00;3.70;;;19.40;1.00;;;;;;6182275;28;20371;-54
2022/05/13 14:03:32;;;;;;;12.73;3.73;;;19.40;1.00;;;;;;6179732;28;20248;-56
2022/05/13 14:06:35;;;;;;;3.77;3.47;;;19.40;1.00;;;;;;6185688;28;20285;-54
2022/05/13 14:09:40;;;;;;;9.07;3.63;;;19.30;1.00;;;;;;6185372;28;20752;-54
2022/05/13 14:12:45;;;;;;;3.47;3.27;;;19.20;1.00;;;;;;6176798;28;20244;-56
2022/05/13 14:16:02;;;;;;;3.30;3.07;;;19.20;1.00;;;;;;6180792;28;20339;-54
2022/05/13 14:19:08;;;;;;;5.03;3.40;;;19.30;1.00;;;;;;6178686;28;20235;-55
2022/05/13 14:22:10;;;;;;;5.23;3.20;;;19.50;1.00;;;;;;6179485;28;20260;-54
2022/05/13 14:25:14;;;;;;;3.87;2.87;;;19.50;1.00;;;;;;6171838;28;20756;-55
2022/05/13 14:28:22;;;;;;;5.53;2.80;;;19.60;1.00;;;;;;6183085;28;20243;-53
2022/05/13 14:31:33;;;;;;;12.00;2.87;;;19.80;1.00;;;;;;6173574;28;20318;-55
2022/05/13 14:34:43;;;;;;;5.93;2.77;;;19.90;1.00;;;;;;6183969;28;20343;-55
2022/05/13 14:37:51;;;;;;;6.57;3.07;;;19.90;1.00;;;;;;6180706;28;20709;-53
2022/05/13 14:41:01;;;;;;;2.77;2.57;;;19.90;1.00;;;;;;6185450;28;20330;-55
2022/05/13 14:44:07;;;;;;;7.73;2.30;;;19.90;1.00;;;;;;6177954;28;20278;-55
2022/05/13 14:47:20;;;;;;;3.70;2.73;;;19.90;1.00;;;;;;6159490;28;20297;-56
2022/05/13 14:50:33;;;;;;;2.80;2.53;;;19.80;1.00;;;;;;6162587;28;20294;-54
2022/05/13 14:53:48;;;;;;;3.27;2.60;;;19.50;1.00;;;;;;6184963;28;20232;-54
2022/05/13 14:56:54;;;;;;;2.50;2.20;;;19.30;1.00;;;;;;6176421;28;20725;-55
2022/05/13 15:00:05;;;;;;;4.40;2.77;;;19.20;1.00;;;;;;6193779;28;20786;-53
2022/05/13 15:03:08;;;;;;;2.70;2.47;;;18.90;1.00;;;;;;6185938;28;20318;-54
2022/05/13 15:06:20;;;;;;;3.60;2.47;;;18.80;1.00;;;;;;6188476;28;20251;-55
2022/05/13 15:09:26;;;;;;;2.80;2.67;;;18.50;1.00;;;;;;6166433;28;20284;-55
2022/05/13 15:12:29;;;;;;;4.10;2.73;;;18.40;1.00;;;;;;6187726;28;20787;-55
2022/05/13 15:15:34;;;;;;;3.17;2.97;;;18.40;1.00;;;;;;6189894;28;20241;-54
2022/05/13 15:18:38;;;;;;;8.83;3.03;;;18.40;1.00;;;;;;6184549;28;20243;-54
2022/05/13 15:21:42;;;;;;;2.70;2.47;;;18.50;1.00;;;;;;6188773;28;20383;-55
2022/05/13 15:24:47;;;;;;;6.13;2.60;;;18.60;1.00;;;;;;6164940;28;20243;-54
2022/05/13 15:27:50;;;;;;;4.30;2.57;;;18.60;1.00;;;;;;6175817;28;20494;-54
2022/05/13 15:30:55;;;;;;;7.40;2.40;;;18.70;1.00;;;;;;6185950;28;22199;-53
2022/05/13 15:33:59;;;;;;;4.37;2.40;;;18.80;1.00;;;;;;6182872;28;20247;-56
2022/05/13 15:37:02;;;;;;;5.73;2.30;;;18.80;1.00;;;;;;6181171;28;20799;-55
2022/05/13 15:40:09;;;;;;;4.10;2.20;;;19.00;1.00;;;;;;6189555;28;20594;-56
2022/05/13 15:43:13;;;;;;;3.73;2.53;;;19.30;1.00;;;;;;6177994;28;20237;-56
2022/05/13 15:46:22;;;;;;;2.17;2.03;;;19.40;1.00;;;;;;6188116;28;20331;-54
2022/05/13 15:52:46;;;;;;;5.57;2.27;;;19.30;1.00;;;;;;6187150;28;20279;-55
2022/05/13 15:55:52;;;;;;;5.03;2.50;;;19.10;1.00;;;;;;6185717;28;20254;-54
2022/05/13 15:58:56;;;;;;;3.87;2.70;;;18.80;1.00;;;;;;6182219;28;20696;-54
2022/05/13 16:02:14;;;;;;;3.00;2.80;;;18.60;1.00;;;;;;6179795;28;20252;-55
2022/05/13 16:05:20;;;;;;;4.90;2.60;;;18.50;1.00;;;;;;6177325;28;20275;-51
2022/05/13 16:08:24;;;;;;;5.47;2.53;;;18.30;1.00;;;;;;6183442;28;20519;-55
2022/05/13 16:11:31;;;;;;;5.07;2.70;;;18.20;1.00;;;;;;6176342;28;20294;-54
2022/05/13 16:14:34;;;;;;;3.07;2.77;;;18.00;1.00;;;;;;6183050;28;20714;-54
2022/05/13 16:17:39;;;;;;;4.03;2.90;;;17.90;1.00;;;;;;6178109;28;20338;-55
2022/05/13 16:20:43;;;;;;;3.17;2.73;;;17.80;1.00;;;;;;6175863;28;20240;-54
2022/05/13 16:23:49;;;;;;;3.47;2.60;;;17.80;1.00;;;;;;6176906;28;20662;-56
2022/05/13 16:26:53;;;;;;;5.03;2.77;;;17.70;1.00;;;;;;6179681;28;20236;-54
2022/05/13 16:29:56;;;;;;;5.30;3.33;;;17.70;1.00;;;;;;6154574;28;20329;-55
2022/05/13 16:33:00;;;;;;;3.30;2.93;;;17.50;1.00;;;;;;6165133;28;20235;-54
2022/05/13 16:36:05;;;;;;;6.07;2.80;;;17.40;1.00;;;;;;6177893;28;20809;-55
2022/05/13 16:39:07;;;;;;;3.40;3.10;;;17.40;1.00;;;;;;6145328;28;20620;-54
2022/05/13 16:42:10;;;;;;;2.90;2.63;;;17.60;1.00;;;;;;6178752;28;20650;-55
2022/05/13 16:45:15;;;;;;;6.10;3.87;;;17.80;1.00;;;;;;6184250;28;20338;-54
2022/05/13 16:48:19;;;;;;;5.87;3.33;;;18.00;1.00;;;;;;6180835;28;20594;-54
2022/05/13 16:51:22;;;;;;;3.60;3.37;;;18.10;1.00;;;;;;6182793;28;20250;-55
2022/05/13 16:54:24;;;;;;;3.13;2.93;;;18.10;1.00;;;;;;6178269;28;20375;-56
2022/05/13 16:57:27;;;;;;;5.73;3.17;;;18.10;1.00;;;;;;6183323;28;20236;-54
2022/05/13 17:00:32;;;;;;;3.17;2.97;;;18.10;1.00;;;;;;6190244;28;20374;-54
2022/05/13 17:03:37;;;;;;;7.60;3.17;;;18.00;1.00;;;;;;6182495;28;20718;-54
2022/05/13 17:06:40;;;;;;;3.40;2.60;;;18.00;1.00;;;;;;6186814;28;20240;-55